createdAt,value
2023-05-01T00:01:21.902Z,65.41
2023-05-01T00:03:49.152Z,64.53
2023-05-01T00:06:16.235Z,64.54
2023-05-01T00:08:43.165Z,64.05
2023-05-01T00:11:11.458Z,63.88
2023-05-01T00:13:38.742Z,64.41
2023-05-01T00:16:10.574Z,64.14
2023-05-01T00:18:38.739Z,64.39
2023-05-01T00:21:05.933Z,64.44
2023-05-01T00:23:32.852Z,65.79
2023-05-01T00:26:04.346Z,64.39
2023-05-01T00:28:31.376Z,66.02
2023-05-01T00:31:00.546Z,67.08
2023-05-01T00:33:29.921Z,65.44
2023-05-01T00:35:56.874Z,64.35
2023-05-01T00:38:27.357Z,63.99
2023-05-01T00:40:54.221Z,64.48
2023-05-01T00:43:23.651Z,63.67
2023-05-01T00:45:52.725Z,64.53
2023-05-01T00:48:19.705Z,63.38
2023-05-01T00:50:47.756Z,63.63
2023-05-01T00:53:14.701Z,63.43
2023-05-01T00:55:43.217Z,63.47
2023-05-01T00:58:12.197Z,62.82
2023-05-01T01:00:39.293Z,64.04
2023-05-01T01:03:08.916Z,64.41
2023-05-01T01:05:48.459Z,64.77
2023-05-01T01:08:32.528Z,64.35
2023-05-01T01:11:25.386Z,65.05
2023-05-01T01:14:07.503Z,64.40
2023-05-01T01:16:52.741Z,64.04
2023-05-01T01:19:57.054Z,64.52
2023-05-01T01:22:27.758Z,64.50
2023-05-01T01:25:38.999Z,65.93
2023-05-01T01:28:29.279Z,64.80
2023-05-01T01:31:21.147Z,64.18
2023-05-01T01:33:54.523Z,64.81
2023-05-01T01:36:53.624Z,65.13
2023-05-01T01:40:11.764Z,64.82
2023-05-01T01:42:53.132Z,65.44
2023-05-01T01:45:25.252Z,64.89
2023-05-01T01:47:59.752Z,64.79
2023-05-01T01:50:28.640Z,64.83
2023-05-01T01:53:01.038Z,65.32
2023-05-01T01:55:33.378Z,64.83
2023-05-01T01:58:03.273Z,65.46
2023-05-01T02:00:31.078Z,65.76
2023-05-01T02:03:00.933Z,65.88
2023-05-01T02:05:28.870Z,64.59
2023-05-01T02:07:58.004Z,63.39
2023-05-01T02:10:27.122Z,63.58
2023-05-01T02:12:56.927Z,62.98
2023-05-01T02:15:26.106Z,63.76
2023-05-01T02:17:54.039Z,64.00
2023-05-01T02:20:24.485Z,63.84
2023-05-01T02:22:53.782Z,64.44
2023-05-01T02:25:23.321Z,64.33
2023-05-01T02:27:57.868Z,63.28
2023-05-01T02:30:26.947Z,64.39
2023-05-01T02:32:59.049Z,64.42
2023-05-01T02:35:26.297Z,63.86
2023-05-01T02:37:53.244Z,64.78
2023-05-01T02:40:20.254Z,63.69
2023-05-01T02:42:49.901Z,64.23
2023-05-01T02:45:22.795Z,64.27
2023-05-01T02:47:54.524Z,65.39
2023-05-01T02:50:22.284Z,64.87
2023-05-01T02:52:49.998Z,65.37
2023-05-01T02:55:18.288Z,64.16
2023-05-01T02:57:45.130Z,65.51
2023-05-01T03:00:13.902Z,64.14
2023-05-01T03:02:41.388Z,64.16
2023-05-01T03:05:08.949Z,64.42
2023-05-01T03:07:35.944Z,64.77
2023-05-01T03:10:07.802Z,64.11
2023-05-01T03:12:34.735Z,64.37
2023-05-01T03:15:01.896Z,64.80
2023-05-01T03:17:31.124Z,65.13
2023-05-01T03:20:00.523Z,65.38
2023-05-01T03:22:33.049Z,65.90
2023-05-01T03:25:04.331Z,64.86
2023-05-01T03:27:31.369Z,65.97
2023-05-01T03:29:58.390Z,66.35
2023-05-01T03:32:25.732Z,65.15
2023-05-01T03:34:52.963Z,65.82
2023-05-01T03:37:19.860Z,64.87
2023-05-01T03:39:46.910Z,65.97
2023-05-01T03:42:13.777Z,65.06
2023-05-01T03:44:40.706Z,65.14
2023-05-01T03:47:10.793Z,65.47
2023-05-01T03:49:37.679Z,65.08
2023-05-01T03:52:07.066Z,65.64
2023-05-01T03:54:33.880Z,65.32
2023-05-01T03:57:00.890Z,64.70
2023-05-01T03:59:30.834Z,65.34
2023-05-01T04:01:57.737Z,64.90
2023-05-01T04:04:24.610Z,65.26
2023-05-01T04:06:51.987Z,64.84
2023-05-01T04:09:21.436Z,65.08
2023-05-01T04:11:48.483Z,65.05
2023-05-01T04:14:15.313Z,66.39
2023-05-01T04:16:44.620Z,65.85
2023-05-01T04:19:14.444Z,66.65
2023-05-01T04:21:41.401Z,65.18
2023-05-01T04:24:10.422Z,63.39
2023-05-01T04:26:37.308Z,64.02
2023-05-01T04:29:04.744Z,63.43
2023-05-01T04:31:31.658Z,63.87
2023-05-01T04:33:58.692Z,62.86
2023-05-01T04:36:32.901Z,63.63
2023-05-01T04:39:04.459Z,62.88
2023-05-01T04:41:33.370Z,62.91
2023-05-01T04:44:00.286Z,63.05
2023-05-01T04:46:27.194Z,62.71
2023-05-01T04:48:54.130Z,63.19
2023-05-01T04:51:21.500Z,62.72
2023-05-01T04:53:51.514Z,62.97
2023-05-01T04:56:18.414Z,62.73
2023-05-01T04:58:47.458Z,62.45
2023-05-01T05:01:14.347Z,61.52
2023-05-01T05:03:43.898Z,61.66
2023-05-01T05:06:11.634Z,61.87
2023-05-01T05:08:40.707Z,61.06
2023-05-01T05:11:07.687Z,61.80
2023-05-01T05:13:34.620Z,60.52
2023-05-01T05:16:04.626Z,59.99
2023-05-01T05:18:31.633Z,60.02
2023-05-01T05:20:58.574Z,58.68
2023-05-01T05:23:25.652Z,57.73
2023-05-01T05:25:52.521Z,57.04
2023-05-01T05:28:19.396Z,58.27
2023-05-01T05:30:49.092Z,58.52
2023-05-01T05:33:15.994Z,58.39
2023-05-01T05:35:45.220Z,57.62
2023-05-01T05:38:12.224Z,56.82
2023-05-01T05:40:39.129Z,56.80
2023-05-01T05:43:05.980Z,56.13
2023-05-01T05:45:36.074Z,57.27
2023-05-01T05:48:04.152Z,57.58
2023-05-01T05:50:36.063Z,57.60
2023-05-01T05:53:02.961Z,57.13
2023-05-01T05:55:30.005Z,55.66
2023-05-01T05:57:57.033Z,56.61
2023-05-01T06:00:24.006Z,55.91
2023-05-01T06:02:53.454Z,56.92
2023-05-01T06:05:22.893Z,56.32
2023-05-01T06:07:49.817Z,56.21
2023-05-01T06:10:17.635Z,55.76
2023-05-01T06:12:50.861Z,55.29
2023-05-01T06:15:25.841Z,54.92
2023-05-01T06:17:53.186Z,55.10
2023-05-01T06:20:20.158Z,53.74
2023-05-01T06:22:47.503Z,55.36
2023-05-01T06:25:14.900Z,55.70
2023-05-01T06:27:42.083Z,54.76
2023-05-01T06:30:12.183Z,54.07
2023-05-01T06:32:39.152Z,54.46
2023-05-01T06:35:08.901Z,54.00
2023-05-01T06:37:36.372Z,53.36
2023-05-01T06:40:05.974Z,53.28
2023-05-01T06:42:32.833Z,52.36
2023-05-01T06:44:59.802Z,52.10
2023-05-01T06:47:31.323Z,52.29
2023-05-01T06:50:05.323Z,52.90
2023-05-01T06:52:37.673Z,51.75
2023-05-01T06:55:04.852Z,51.86
2023-05-01T06:57:31.785Z,50.92
2023-05-01T06:59:58.881Z,50.22
2023-05-01T07:02:26.167Z,50.68
2023-05-01T07:04:55.386Z,50.04
2023-05-01T07:07:23.322Z,49.13
2023-05-01T07:09:52.657Z,48.35
2023-05-01T07:12:19.465Z,47.08
2023-05-01T07:14:46.453Z,47.27
2023-05-01T07:17:13.291Z,47.33
2023-05-01T07:19:42.597Z,46.55
2023-05-01T07:22:09.446Z,46.56
2023-05-01T07:24:43.408Z,46.97
2023-05-01T07:27:10.348Z,46.34
2023-05-01T07:29:39.984Z,46.33
2023-05-01T07:32:09.000Z,46.13
2023-05-01T07:34:36.101Z,45.64
2023-05-01T07:37:04.811Z,46.00
2023-05-01T07:39:31.881Z,45.82
2023-05-01T07:41:58.720Z,45.71
2023-05-01T07:44:27.900Z,45.55
2023-05-01T07:46:54.822Z,44.95
2023-05-01T07:49:24.958Z,44.38
2023-05-01T07:51:52.419Z,44.75
2023-05-01T07:54:22.112Z,43.00
2023-05-01T07:56:51.253Z,41.45
2023-05-01T07:59:18.172Z,40.67
2023-05-01T08:01:45.130Z,40.81
2023-05-01T08:04:12.149Z,40.43
2023-05-01T08:06:39.427Z,40.00
2023-05-01T08:09:08.618Z,39.28
2023-05-01T08:11:38.114Z,39.39
2023-05-01T08:14:04.962Z,38.53
2023-05-01T08:16:31.914Z,37.78
2023-05-01T08:18:59.132Z,38.31
2023-05-01T08:21:26.509Z,37.45
2023-05-01T08:23:56.672Z,37.47
2023-05-01T08:26:23.665Z,36.41
2023-05-01T08:28:50.894Z,36.48
2023-05-01T08:31:19.444Z,35.32
2023-05-01T08:33:51.909Z,34.44
2023-05-01T08:36:20.684Z,34.18
2023-05-01T08:38:48.504Z,34.68
2023-05-01T08:41:22.875Z,33.86
2023-05-01T08:43:50.378Z,34.09
2023-05-01T08:46:41.291Z,35.31
2023-05-01T08:49:11.505Z,34.05
2023-05-01T08:51:39.618Z,33.47
2023-05-01T08:54:08.288Z,33.54
2023-05-01T08:56:39.840Z,33.05
2023-05-01T08:59:11.753Z,33.07
2023-05-01T09:01:43.127Z,34.05
2023-05-01T09:04:12.001Z,34.34
2023-05-01T09:06:39.348Z,33.91
2023-05-01T09:09:06.664Z,32.63
2023-05-01T09:11:33.722Z,32.90
2023-05-01T09:14:01.814Z,32.98
2023-05-01T09:16:30.502Z,32.47
2023-05-01T09:18:59.375Z,33.07
2023-05-01T09:21:31.997Z,33.68
2023-05-01T09:24:02.683Z,33.25
2023-05-01T09:26:29.614Z,33.69
2023-05-01T09:28:58.307Z,33.69
2023-05-01T09:31:37.125Z,33.28
2023-05-01T09:34:05.993Z,32.48
2023-05-01T09:36:37.475Z,32.48
2023-05-01T09:39:06.931Z,32.19
2023-05-01T09:41:33.919Z,31.44
2023-05-01T09:44:01.572Z,32.09
2023-05-01T09:46:28.645Z,32.01
2023-05-01T09:49:00.838Z,32.03
2023-05-01T09:51:35.096Z,31.61
2023-05-01T09:54:05.240Z,31.43
2023-05-01T09:56:47.417Z,30.29
2023-05-01T09:59:21.389Z,29.87
2023-05-01T10:01:50.308Z,30.39
2023-05-01T10:04:20.349Z,29.83
2023-05-01T10:06:47.622Z,29.51
2023-05-01T10:09:28.505Z,29.04
2023-05-01T10:11:57.944Z,29.14
2023-05-01T10:14:26.984Z,28.94
2023-05-01T10:16:54.292Z,29.32
2023-05-01T10:19:26.255Z,28.96
2023-05-01T10:21:56.110Z,28.67
2023-05-01T10:24:23.262Z,27.80
2023-05-01T10:26:51.343Z,27.40
2023-05-01T10:29:21.178Z,27.10
2023-05-01T10:31:48.393Z,26.58
2023-05-01T10:34:21.702Z,26.70
2023-05-01T10:36:59.602Z,26.94
2023-05-01T10:39:39.540Z,26.61
2023-05-01T10:42:14.364Z,26.57
2023-05-01T10:44:42.929Z,26.80
2023-05-01T10:47:28.243Z,26.22
2023-05-01T10:50:15.948Z,26.22
2023-05-01T10:53:17.580Z,25.96
2023-05-01T10:55:51.799Z,26.38
2023-05-01T10:58:37.244Z,27.03
2023-05-01T11:01:30.754Z,26.92
2023-05-01T11:04:00.323Z,27.44
2023-05-01T11:06:27.976Z,26.90
2023-05-01T11:08:55.468Z,27.22
2023-05-01T11:11:22.911Z,27.83
2023-05-01T11:14:05.825Z,27.03
2023-05-01T11:16:46.088Z,26.74
2023-05-01T11:19:38.960Z,27.00
2023-05-01T11:22:15.497Z,27.34
2023-05-01T11:24:43.263Z,26.62
2023-05-01T11:27:16.150Z,26.86
2023-05-01T11:29:48.559Z,27.66
2023-05-01T11:32:19.855Z,27.38
2023-05-01T11:34:49.772Z,26.95
2023-05-01T11:37:19.206Z,26.60
2023-05-01T11:39:53.736Z,27.01
2023-05-01T11:42:26.316Z,26.37
2023-05-01T11:45:12.607Z,26.07
2023-05-01T11:47:40.535Z,26.13
2023-05-01T11:50:10.305Z,26.38
2023-05-01T11:52:54.635Z,26.46
2023-05-01T11:55:31.320Z,25.43
2023-05-01T11:57:59.368Z,24.78
2023-05-01T12:00:41.644Z,25.04
2023-05-01T12:03:14.757Z,25.61
2023-05-01T12:05:45.051Z,25.74
2023-05-01T12:08:23.480Z,25.52
2023-05-01T12:10:57.658Z,25.45
2023-05-01T12:13:26.964Z,25.93
2023-05-01T12:16:04.433Z,25.11
2023-05-01T12:18:31.818Z,24.60
2023-05-01T12:21:02.328Z,25.06
2023-05-01T12:23:36.030Z,25.77
2023-05-01T12:26:28.728Z,25.61
2023-05-01T12:29:01.501Z,24.65
2023-05-01T12:31:31.957Z,25.20
2023-05-01T12:34:00.124Z,24.43
2023-05-01T12:36:33.392Z,24.12
2023-05-01T12:39:09.039Z,24.79
2023-05-01T12:41:40.262Z,24.44
2023-05-01T12:44:30.830Z,23.94
2023-05-01T12:47:09.107Z,23.45
2023-05-01T12:49:38.785Z,23.50
2023-05-01T12:52:08.982Z,24.54
2023-05-01T12:54:38.830Z,24.48
2023-05-01T12:57:08.025Z,24.68
2023-05-01T12:59:44.553Z,24.39
2023-05-01T13:02:17.680Z,23.66
2023-05-01T13:04:49.359Z,23.41
2023-05-01T13:07:20.285Z,23.57
2023-05-01T13:09:59.185Z,23.81
2023-05-01T13:12:28.136Z,25.21
2023-05-01T13:14:58.940Z,24.17
2023-05-01T13:17:33.576Z,23.85
2023-05-01T13:20:04.048Z,24.61
2023-05-01T13:22:41.593Z,25.03
2023-05-01T13:25:17.307Z,25.38
2023-05-01T13:27:54.019Z,25.24
2023-05-01T13:30:32.178Z,25.09
2023-05-01T13:32:59.500Z,26.67
2023-05-01T13:35:29.687Z,26.36
2023-05-01T13:37:56.917Z,26.12
2023-05-01T13:40:26.226Z,25.81
2023-05-01T13:42:54.076Z,25.38
2023-05-01T13:45:21.386Z,25.04
2023-05-01T13:47:51.598Z,24.79
2023-05-01T13:50:18.853Z,24.59
2023-05-01T13:52:46.274Z,25.94
2023-05-01T13:55:14.485Z,26.68
2023-05-01T13:57:43.238Z,26.79
2023-05-01T14:00:19.399Z,26.76
2023-05-01T14:02:53.486Z,26.52
2023-05-01T14:05:29.183Z,25.87
2023-05-01T14:08:03.278Z,26.33
2023-05-01T14:10:33.697Z,27.07
2023-05-01T14:13:01.169Z,27.85
2023-05-01T14:15:31.574Z,28.05
2023-05-01T14:18:01.043Z,27.42
2023-05-01T14:20:28.124Z,27.35
2023-05-01T14:22:55.020Z,25.52
2023-05-01T14:25:34.798Z,24.91
2023-05-01T14:28:08.036Z,23.59
2023-05-01T14:30:38.296Z,24.16
2023-05-01T14:33:13.522Z,23.82
2023-05-01T14:35:50.950Z,23.30
2023-05-01T14:38:38.628Z,23.63
2023-05-01T14:41:11.339Z,23.30
2023-05-01T14:43:44.378Z,23.14
2023-05-01T14:46:34.841Z,22.95
2023-05-01T14:49:04.381Z,23.14
2023-05-01T14:51:33.619Z,23.39
2023-05-01T14:54:00.694Z,22.84
2023-05-01T14:56:29.906Z,22.94
2023-05-01T14:59:01.014Z,22.94
2023-05-01T15:01:28.029Z,23.48
2023-05-01T15:03:59.832Z,23.39
2023-05-01T15:06:33.183Z,24.04
2023-05-01T15:09:01.053Z,23.86
2023-05-01T15:11:30.635Z,23.63
2023-05-01T15:13:57.733Z,24.05
2023-05-01T15:16:27.681Z,23.64
2023-05-01T15:18:57.391Z,24.30
2023-05-01T15:21:24.530Z,24.48
2023-05-01T15:23:52.256Z,24.40
2023-05-01T15:26:19.299Z,24.62
2023-05-01T15:28:46.549Z,24.56
2023-05-01T15:31:19.259Z,24.97
2023-05-01T15:33:46.731Z,25.02
2023-05-01T15:36:18.909Z,25.54
2023-05-01T15:38:47.678Z,25.41
2023-05-01T15:41:16.347Z,25.71
2023-05-01T15:43:49.856Z,25.86
2023-05-01T15:46:18.303Z,25.77
2023-05-01T15:48:47.751Z,26.04
2023-05-01T15:51:15.919Z,26.33
2023-05-01T15:53:42.980Z,26.45
2023-05-01T15:56:10.438Z,26.25
2023-05-01T15:58:39.827Z,26.41
2023-05-01T16:01:07.793Z,26.28
2023-05-01T16:03:35.162Z,26.60
2023-05-01T16:06:05.187Z,26.38
2023-05-01T16:08:33.472Z,26.78
2023-05-01T16:11:04.228Z,27.03
2023-05-01T16:13:31.484Z,26.93
2023-05-01T16:16:02.197Z,27.40
2023-05-01T16:18:29.414Z,26.79
2023-05-01T16:20:58.765Z,26.88
2023-05-01T16:23:30.241Z,26.66
2023-05-01T16:25:58.175Z,27.18
2023-05-01T16:28:27.817Z,27.11
2023-05-01T16:30:55.615Z,27.17
2023-05-01T16:33:23.611Z,27.60
2023-05-01T16:35:59.508Z,27.47
2023-05-01T16:38:29.143Z,28.22
2023-05-01T16:40:56.212Z,27.79
2023-05-01T16:43:25.914Z,28.28
2023-05-01T16:45:54.557Z,27.92
2023-05-01T16:48:24.712Z,28.05
2023-05-01T16:50:52.233Z,28.05
2023-05-01T16:53:19.285Z,27.28
2023-05-01T16:55:46.590Z,27.91
2023-05-01T16:58:16.247Z,27.52
2023-05-01T17:00:43.854Z,28.04
2023-05-01T17:03:10.921Z,27.92
2023-05-01T17:05:38.137Z,28.11
2023-05-01T17:08:07.746Z,28.45
2023-05-01T17:10:35.156Z,28.27
2023-05-01T17:13:02.404Z,28.61
2023-05-01T17:15:29.730Z,28.44
2023-05-01T17:17:57.044Z,28.96
2023-05-01T17:20:23.963Z,29.30
2023-05-01T17:22:51.043Z,29.75
2023-05-01T17:25:18.300Z,30.22
2023-05-01T17:27:45.651Z,30.56
2023-05-01T17:30:13.877Z,30.64
2023-05-01T17:32:41.333Z,30.97
2023-05-01T17:35:09.093Z,31.46
2023-05-01T17:37:42.463Z,31.22
2023-05-01T17:40:12.366Z,31.32
2023-05-01T17:42:40.191Z,31.74
2023-05-01T17:45:10.149Z,32.52
2023-05-01T17:47:45.144Z,32.15
2023-05-01T17:50:14.811Z,32.53
2023-05-01T17:52:44.250Z,32.74
2023-05-01T17:55:13.636Z,32.68
2023-05-01T17:57:42.054Z,33.03
2023-05-01T18:00:13.363Z,33.41
2023-05-01T18:02:44.648Z,33.49
2023-05-01T18:05:12.799Z,33.72
2023-05-01T18:07:41.699Z,34.17
2023-05-01T18:10:14.974Z,33.93
2023-05-01T18:12:45.851Z,34.23
2023-05-01T18:15:13.733Z,34.68
2023-05-01T18:17:44.278Z,34.53
2023-05-01T18:20:13.903Z,34.98
2023-05-01T18:22:44.347Z,35.26
2023-05-01T18:25:11.974Z,35.32
2023-05-01T18:27:41.671Z,35.60
2023-05-01T18:30:14.096Z,36.00
2023-05-01T18:32:47.724Z,35.95
2023-05-01T18:35:20.699Z,36.16
2023-05-01T18:37:47.931Z,36.07
2023-05-01T18:40:17.794Z,36.65
2023-05-01T18:42:44.976Z,36.86
2023-05-01T18:45:12.842Z,37.55
2023-05-01T18:47:42.289Z,39.37
2023-05-01T18:50:10.517Z,40.19
2023-05-01T18:52:37.696Z,41.17
2023-05-01T18:55:05.625Z,42.01
2023-05-01T18:57:32.660Z,42.10
2023-05-01T19:00:04.670Z,42.25
2023-05-01T19:02:32.169Z,42.11
2023-05-01T19:05:01.817Z,42.84
2023-05-01T19:07:34.429Z,42.77
2023-05-01T19:10:04.705Z,43.19
2023-05-01T19:12:32.533Z,42.75
2023-05-01T19:15:00.239Z,43.08
2023-05-01T19:17:27.871Z,42.80
2023-05-01T19:19:55.336Z,42.91
2023-05-01T19:22:22.390Z,43.10
2023-05-01T19:24:51.949Z,42.93
2023-05-01T19:27:19.948Z,43.41
2023-05-01T19:29:50.465Z,43.24
2023-05-01T19:32:18.169Z,43.26
2023-05-01T19:34:47.757Z,43.59
2023-05-01T19:37:17.492Z,43.17
2023-05-01T19:39:46.352Z,43.00
2023-05-01T19:42:14.628Z,43.03
2023-05-01T19:44:42.728Z,43.16
2023-05-01T19:47:10.456Z,43.79
2023-05-01T19:49:38.859Z,43.77
2023-05-01T19:52:06.780Z,43.63
2023-05-01T19:54:34.182Z,43.55
2023-05-01T19:57:03.375Z,43.87
2023-05-01T19:59:31.289Z,44.38
2023-05-01T20:02:00.519Z,43.17
2023-05-01T20:04:33.384Z,43.68
2023-05-01T20:07:02.992Z,43.49
2023-05-01T20:09:30.908Z,43.54
2023-05-01T20:11:58.183Z,43.07
2023-05-01T20:14:25.412Z,43.56
2023-05-01T20:16:57.113Z,43.91
2023-05-01T20:19:24.527Z,44.07
2023-05-01T20:21:54.526Z,43.81
2023-05-01T20:24:25.161Z,44.22
2023-05-01T20:26:55.914Z,44.08
2023-05-01T20:29:23.892Z,43.63
2023-05-01T20:31:54.821Z,43.87
2023-05-01T20:34:25.215Z,44.15
2023-05-01T20:36:54.775Z,43.94
2023-05-01T20:39:22.059Z,44.10
2023-05-01T20:41:52.586Z,43.81
2023-05-01T20:44:24.526Z,43.98
2023-05-01T20:46:54.079Z,43.87
2023-05-01T20:49:24.110Z,43.35
2023-05-01T20:51:51.798Z,43.13
2023-05-01T20:54:22.083Z,43.64
2023-05-01T20:56:49.623Z,43.85
2023-05-01T20:59:20.209Z,43.89
2023-05-01T21:01:47.947Z,43.86
2023-05-01T21:04:16.710Z,44.55
2023-05-01T21:06:44.078Z,44.45
2023-05-01T21:09:15.064Z,43.78
2023-05-01T21:11:47.239Z,44.83
2023-05-01T21:14:17.898Z,44.52
2023-05-01T21:16:48.574Z,44.13
2023-05-01T21:19:18.060Z,44.49
2023-05-01T21:21:49.043Z,44.72
2023-05-01T21:24:26.268Z,44.35
2023-05-01T21:27:20.558Z,44.77
2023-05-01T21:30:01.705Z,45.45
2023-05-01T21:32:35.407Z,46.15
2023-05-01T21:35:03.840Z,46.09
2023-05-01T21:37:33.062Z,46.77
2023-05-01T21:40:10.341Z,46.52
2023-05-01T21:42:39.607Z,46.26
2023-05-01T21:45:09.710Z,46.86
2023-05-01T21:47:45.485Z,47.26
2023-05-01T21:50:16.407Z,47.98
2023-05-01T21:52:50.573Z,47.91
2023-05-01T21:55:26.532Z,47.45
2023-05-01T21:57:58.228Z,48.19
2023-05-01T22:00:25.842Z,47.84
2023-05-01T22:02:54.404Z,47.69
2023-05-01T22:05:23.056Z,48.04
2023-05-01T22:07:54.616Z,48.15
2023-05-01T22:10:22.203Z,48.34
2023-05-01T22:12:50.347Z,48.37
2023-05-01T22:15:20.069Z,48.57
2023-05-01T22:17:50.901Z,48.50
2023-05-01T22:20:18.806Z,48.68
2023-05-01T22:22:46.169Z,48.62
2023-05-01T22:25:13.477Z,48.80
2023-05-01T22:27:43.151Z,49.31
2023-05-01T22:30:11.369Z,49.49
2023-05-01T22:32:41.235Z,49.60
2023-05-01T22:35:09.178Z,49.23
2023-05-01T22:37:39.015Z,48.47
2023-05-01T22:40:10.009Z,49.09
2023-05-01T22:42:42.927Z,49.21
2023-05-01T22:45:10.443Z,49.17
2023-05-01T22:47:39.892Z,48.81
2023-05-01T22:50:07.742Z,48.26
2023-05-01T22:52:35.003Z,49.81
2023-05-01T22:55:02.621Z,50.05
2023-05-01T22:57:31.758Z,50.09
2023-05-01T22:59:59.754Z,50.32
2023-05-01T23:02:27.419Z,50.31
2023-05-01T23:04:55.078Z,50.96
2023-05-01T23:07:22.513Z,50.46
2023-05-01T23:09:50.319Z,50.62
2023-05-01T23:12:23.318Z,50.36
2023-05-01T23:14:53.975Z,50.58
2023-05-01T23:17:22.127Z,50.82
2023-05-01T23:19:54.993Z,51.18
2023-05-01T23:22:25.502Z,51.14
2023-05-01T23:24:52.845Z,51.04
2023-05-01T23:27:22.351Z,51.19
2023-05-01T23:29:58.750Z,51.45
2023-05-01T23:32:30.172Z,51.49
2023-05-01T23:35:18.992Z,51.52
2023-05-01T23:37:46.281Z,51.96
2023-05-01T23:40:15.668Z,51.72
2023-05-01T23:42:43.298Z,52.24
2023-05-01T23:45:10.553Z,51.41
2023-05-01T23:47:39.130Z,52.54
2023-05-01T23:50:07.594Z,52.72
2023-05-01T23:52:35.186Z,52.63
2023-05-01T23:55:05.647Z,52.53
2023-05-01T23:57:35.359Z,52.50
